Time;durP1;ratioP1;P1;durP2;ratioP2;P2;SDS_P1;SDS_P2;PMS_P1;PMS_P2;Temp;Humidity;BMP_temperature;BMP_pressure;BME280_temperature;BME280_humidity;BME280_pressure;Samples;Min_cycle;Max_cycle;Signal;HPM_P1;HPM_P2
2022/09/12 00:02:05;;;;;;;9.87;9.07;;;11.90;99.90;;;12.28;92.28;98151.25;5070981;28;20466;-77
2022/09/12 00:04:32;;;;;;;10.27;9.37;;;11.90;99.90;;;12.27;92.48;98144.16;5071210;28;20740;-77
2022/09/12 00:06:59;;;;;;;9.97;8.97;;;11.90;99.90;;;12.27;92.37;98146.88;5068539;28;20449;-77
2022/09/12 00:09:28;;;;;;;10.40;9.40;;;11.90;99.90;;;12.15;93.18;98147.59;5064017;28;20470;-80
2022/09/12 00:11:55;;;;;;;11.43;10.43;;;11.90;99.90;;;11.84;93.85;98081.59;5063704;28;20462;-75
2022/09/12 00:14:23;;;;;;;10.57;9.57;;;11.90;99.90;;;12.19;93.31;98137.97;5061507;28;20503;-74
2022/09/12 00:16:50;;;;;;;11.13;10.03;;;11.90;99.90;;;12.18;92.80;98130.09;5062104;28;20450;-75
2022/09/12 00:19:17;;;;;;;10.83;9.83;;;11.90;99.90;;;12.18;92.38;98136.31;5083849;28;21049;-82
2022/09/12 00:21:45;;;;;;;10.23;9.27;;;11.90;99.90;;;12.14;92.45;98129.69;5059085;28;20491;-87
2022/09/12 00:24:12;;;;;;;10.60;9.70;;;11.80;99.90;;;12.13;92.19;98132.59;5052084;28;20465;-82
2022/09/12 00:26:40;;;;;;;11.60;10.60;;;11.80;99.90;;;12.06;92.27;98121.03;5048559;28;20460;-87
2022/09/12 00:29:08;;;;;;;10.30;9.40;;;11.70;99.90;;;11.64;92.17;98070.94;5043244;28;20547;-83
2022/09/12 00:31:35;;;;;;;12.10;10.67;;;11.70;99.90;;;11.56;92.40;98058.53;5040817;28;20463;-81
2022/09/12 00:34:03;;;;;;;10.67;9.67;;;11.70;99.90;;;11.99;92.43;98135.44;5052759;28;20523;-81
2022/09/12 00:36:31;;;;;;;11.57;10.57;;;11.70;99.90;;;12.04;92.29;98134.78;5048200;28;20487;-85
2022/09/12 00:38:58;;;;;;;12.20;11.10;;;11.70;99.90;;;11.97;92.46;98134.00;5034632;28;20515;-78
2022/09/12 00:41:29;;;;;;;10.83;9.90;;;11.60;99.90;;;11.70;92.69;98097.16;5039058;28;21131;-81
2022/09/12 00:44:02;;;;;;;10.60;9.57;;;11.60;99.90;;;11.83;92.90;98136.81;5040805;28;20456;-74
2022/09/12 00:46:39;;;;;;;11.33;10.23;;;11.60;99.90;;;11.90;92.07;98129.47;5043036;28;20530;-81
2022/09/12 00:49:12;;;;;;;11.57;10.47;;;11.50;99.90;;;11.73;91.78;98112.94;5041052;28;20456;-83
2022/09/12 00:51:43;;;;;;;10.40;9.13;;;11.40;99.90;;;11.83;91.70;98128.69;5043003;28;20471;-80
2022/09/12 00:54:15;;;;;;;10.90;9.90;;;11.40;99.90;;;11.85;91.66;98126.56;5050495;28;20510;-81
2022/09/12 00:56:45;;;;;;;10.10;9.30;;;11.40;99.90;;;11.69;92.45;98121.72;5051264;28;21014;-82
2022/09/12 00:59:19;;;;;;;11.53;10.40;;;11.30;99.90;;;11.71;92.78;98108.78;5049470;28;20489;-84
2022/09/12 01:01:50;;;;;;;11.23;10.20;;;11.30;99.90;;;11.81;92.16;98113.69;5049531;28;20448;-81
2022/09/12 01:04:20;;;;;;;12.43;10.80;;;11.40;99.90;;;11.70;92.59;98102.56;5045587;28;20516;-83
2022/09/12 01:06:49;;;;;;;11.97;10.90;;;11.40;99.90;;;11.76;92.44;98111.69;5045858;28;20547;-81
2022/09/12 01:09:21;;;;;;;11.77;10.70;;;11.40;99.90;;;11.81;92.31;98108.28;5046569;28;20453;-83
2022/09/12 01:11:49;;;;;;;11.20;10.30;;;11.50;99.90;;;11.65;93.22;98104.28;5034642;28;20481;-80
2022/09/12 01:14:19;;;;;;;11.20;10.17;;;11.40;99.90;;;11.68;93.58;98101.97;5039040;28;20480;-84
2022/09/12 01:16:48;;;;;;;11.70;10.53;;;11.40;99.90;;;11.50;93.50;98086.47;5055950;28;20464;-84
2022/09/12 01:19:45;;;;;;;11.27;10.17;;;11.40;99.90;;;11.67;93.38;98104.88;5047420;28;20947;-84
2022/09/12 01:22:34;;;;;;;11.33;10.33;;;11.40;99.90;;;11.65;92.44;98099.66;5056646;28;20446;-76
2022/09/12 01:25:11;;;;;;;10.50;9.60;;;11.30;99.90;;;11.59;92.85;98095.97;5056517;28;20466;-81
2022/09/12 01:27:55;;;;;;;11.10;10.03;;;11.30;99.90;;;11.38;93.11;98094.47;5052827;28;20478;-78
2022/09/12 01:30:32;;;;;;;10.50;9.60;;;11.20;99.90;;;11.44;93.05;98087.34;5039176;28;20977;-78
2022/09/12 01:33:42;;;;;;;10.70;9.77;;;11.20;99.90;;;11.44;93.20;98093.59;5043775;28;20466;-75
2022/09/12 01:36:41;;;;;;;12.10;11.10;;;11.10;99.90;;;11.40;94.08;98078.00;5078937;28;20475;-82
2022/09/12 01:39:23;;;;;;;10.97;9.87;;;11.20;99.90;;;11.48;94.13;98094.00;5049079;28;20496;-82
2022/09/12 01:42:02;;;;;;;10.70;9.60;;;11.20;99.90;;;11.45;94.01;98089.03;5050073;28;20466;-74
2022/09/12 01:44:40;;;;;;;9.90;9.00;;;11.20;99.90;;;11.40;93.98;98083.41;5055412;28;20788;-82
2022/09/12 01:47:15;;;;;;;10.50;9.60;;;11.20;99.90;;;11.36;93.97;98087.63;5058378;28;20459;-83
2022/09/12 01:49:52;;;;;;;10.93;9.93;;;11.10;99.90;;;11.30;94.05;98082.06;5038326;28;20464;-81
2022/09/12 01:52:25;;;;;;;11.30;10.20;;;11.10;99.90;;;11.30;93.72;98082.06;5038891;28;20971;-85
2022/09/12 01:55:00;;;;;;;9.97;9.10;;;11.10;99.90;;;11.19;93.26;98059.22;5044626;28;20471;-82
2022/09/12 01:57:35;;;;;;;11.30;10.20;;;11.00;99.90;;;11.32;93.59;98079.94;5045551;28;20462;-83
2022/09/12 02:00:10;;;;;;;10.20;9.30;;;11.10;99.90;;;11.24;93.73;98077.50;5040602;28;20459;-77
2022/09/12 02:02:44;;;;;;;9.90;9.00;;;11.00;99.90;;;11.16;93.24;98069.66;5042451;28;20455;-82
2022/09/12 02:05:16;;;;;;;8.90;8.10;;;11.00;99.90;;;11.16;93.23;98075.88;5036368;28;21273;-82
2022/09/12 02:07:47;;;;;;;9.80;9.00;;;10.90;99.90;;;11.05;94.22;98080.13;5043436;28;20458;-81
2022/09/12 02:10:18;;;;;;;9.00;8.20;;;10.80;99.90;;;11.05;93.69;98073.88;5039006;28;20520;-80
2022/09/12 02:12:52;;;;;;;8.40;7.63;;;10.90;99.90;;;11.10;93.69;98073.22;5049056;28;20456;-83
2022/09/12 02:15:24;;;;;;;9.50;8.70;;;10.80;99.90;;;11.09;93.34;98079.66;5040781;28;20553;-86
2022/09/12 02:17:55;;;;;;;9.67;8.83;;;10.90;99.90;;;11.02;93.44;98069.75;5039269;28;20518;-83
2022/09/12 02:20:26;;;;;;;9.20;8.40;;;10.80;99.90;;;11.09;93.15;98076.97;5038247;28;20489;-87
2022/09/12 02:22:56;;;;;;;9.80;8.90;;;10.80;99.90;;;11.13;94.03;98075.47;5051062;28;20526;-86
2022/09/12 02:25:26;;;;;;;8.90;8.10;;;10.80;99.90;;;11.05;94.22;98068.47;5041306;28;20509;-84
2022/09/12 02:27:59;;;;;;;10.07;9.13;;;10.90;99.90;;;11.02;93.67;98058.09;5079514;28;20948;-80
2022/09/12 02:30:31;;;;;;;9.27;8.37;;;10.90;99.90;;;11.14;93.25;98064.47;5057248;28;20817;-81
2022/09/12 02:33:06;;;;;;;9.00;8.20;;;10.90;99.90;;;10.97;93.99;98072.25;5052361;28;20522;-80
2022/09/12 02:35:41;;;;;;;10.80;9.80;;;10.80;99.90;;;10.95;93.46;98058.13;5046675;28;20583;-81
2022/09/12 02:38:13;;;;;;;10.63;9.63;;;10.80;99.90;;;10.95;94.25;98063.53;5045339;28;21047;-80
2022/09/12 02:40:41;;;;;;;10.37;9.37;;;10.80;99.90;;;11.00;94.27;98054.78;5045349;28;20471;-80
2022/09/12 02:43:08;;;;;;;10.60;9.70;;;10.80;99.90;;;10.96;94.14;98056.25;5044200;28;20942;-81
2022/09/12 02:45:36;;;;;;;9.97;9.10;;;10.80;99.90;;;10.93;93.91;98060.22;5046044;28;20499;-78
2022/09/12 02:48:10;;;;;;;10.63;9.63;;;10.70;99.90;;;10.93;94.40;98057.50;5042975;28;20467;-75
2022/09/12 02:50:39;;;;;;;10.43;9.47;;;10.70;99.90;;;10.94;93.77;98061.88;5039465;28;20499;-82
2022/09/12 02:53:08;;;;;;;12.57;10.50;;;10.70;99.90;;;10.90;93.99;98053.34;5047668;28;21047;-79
2022/09/12 02:55:39;;;;;;;11.70;10.50;;;10.60;99.90;;;10.93;93.78;98060.22;5044406;28;20482;-75
2022/09/12 02:58:11;;;;;;;13.70;10.50;;;10.60;99.90;;;10.86;93.70;98060.25;5050513;28;20462;-81
2022/09/12 03:00:48;;;;;;;13.80;11.67;;;10.60;99.90;;;10.50;94.02;98013.06;5057069;28;20460;-78
2022/09/12 03:03:49;;;;;;;11.87;10.67;;;10.60;99.90;;;10.78;94.24;98068.63;5048419;28;20466;-79
2022/09/12 03:06:21;;;;;;;12.83;11.53;;;10.60;99.90;;;10.80;93.55;98049.47;5054341;28;20458;-78
2022/09/12 03:09:00;;;;;;;13.10;11.80;;;10.60;99.90;;;10.82;93.52;98056.31;5051777;28;20494;-80
2022/09/12 03:11:55;;;;;;;11.90;10.67;;;10.60;99.90;;;10.91;93.65;98057.72;5049872;28;20461;-83
2022/09/12 03:14:50;;;;;;;12.50;11.20;;;10.60;99.90;;;10.81;93.97;98056.53;5061585;28;20466;-80
2022/09/12 03:17:32;;;;;;;12.57;11.27;;;10.60;99.90;;;10.83;93.97;98059.84;5064579;28;20563;-81
2022/09/12 03:20:09;;;;;;;13.40;12.10;;;10.60;99.90;;;10.80;93.96;98052.19;5050926;28;20584;-82
2022/09/12 03:22:50;;;;;;;12.47;11.07;;;10.60;99.90;;;10.74;94.39;98062.81;5045017;28;20469;-78
2022/09/12 03:25:21;;;;;;;11.67;10.50;;;10.60;99.90;;;10.74;94.01;98059.25;5040018;28;20460;-79
2022/09/12 03:27:57;;;;;;;12.70;11.50;;;10.50;99.90;;;10.73;93.67;98047.66;5051839;28;20464;-82
2022/09/12 03:30:24;;;;;;;10.63;9.67;;;10.50;99.90;;;10.75;93.65;98050.97;5031473;28;20474;-81
2022/09/12 03:32:56;;;;;;;12.40;11.20;;;10.50;99.90;;;10.72;94.09;98054.09;5031788;28;20521;-81
2022/09/12 03:35:25;;;;;;;11.00;9.90;;;10.50;99.90;;;10.69;94.00;98048.28;5030127;28;21837;-78
2022/09/12 03:37:53;;;;;;;10.17;9.17;;;10.50;99.90;;;10.75;93.17;98053.66;5084568;28;20484;-81
2022/09/12 03:40:21;;;;;;;10.77;9.77;;;10.50;99.90;;;10.71;93.15;98054.31;5049631;28;21030;-81
2022/09/12 03:42:48;;;;;;;9.97;8.97;;;10.40;99.90;;;10.67;93.63;98056.59;5067319;28;20444;-77
2022/09/12 03:45:15;;;;;;;11.10;9.27;;;10.40;99.90;;;10.59;93.63;98060.38;5070251;28;20441;-79
2022/09/12 03:47:43;;;;;;;11.10;9.80;;;10.40;99.90;;;10.59;93.99;98054.16;5061738;28;20468;-82
2022/09/12 03:50:10;;;;;;;10.93;9.83;;;10.40;99.90;;;10.66;93.42;98064.94;5063662;28;20449;-76
2022/09/12 03:52:39;;;;;;;12.73;10.57;;;10.40;99.90;;;10.64;93.44;98067.84;5059162;28;20461;-76
2022/09/12 03:55:07;;;;;;;10.67;9.57;;;10.40;99.90;;;10.63;93.58;98074.28;5040060;28;20473;-83
2022/09/12 03:57:34;;;;;;;11.07;10.10;;;10.40;99.90;;;10.70;93.27;98071.56;5048384;28;20451;-82
2022/09/12 04:00:01;;;;;;;10.87;9.77;;;10.40;99.90;;;10.57;93.23;98059.75;5048663;28;20529;-81
2022/09/12 04:02:29;;;;;;;10.93;9.83;;;10.40;99.90;;;10.47;94.55;98051.31;5053099;28;20462;-81
2022/09/12 04:04:56;;;;;;;10.77;9.50;;;10.40;99.90;;;10.52;93.98;98054.19;5050658;28;20455;-81
2022/09/12 04:07:23;;;;;;;9.47;8.53;;;10.30;99.90;;;10.60;93.59;98063.91;5052917;28;20930;-80
2022/09/12 04:09:53;;;;;;;9.77;8.87;;;10.30;99.90;;;10.53;93.97;98049.59;5044066;28;20539;-81
2022/09/12 04:12:21;;;;;;;11.47;10.40;;;10.40;99.90;;;10.60;93.09;98056.63;5037485;28;20566;-79
2022/09/12 04:14:48;;;;;;;10.87;9.77;;;10.40;99.90;;;10.54;93.71;98056.66;5043459;28;20499;-81
2022/09/12 04:17:16;;;;;;;9.23;8.33;;;10.30;99.90;;;10.60;93.38;98059.31;5051889;28;20451;-81
2022/09/12 04:19:43;;;;;;;10.40;9.40;;;10.20;99.90;;;10.62;92.87;98064.53;5049691;28;20450;-82
2022/09/12 04:22:11;;;;;;;10.20;9.20;;;10.30;99.90;;;10.51;92.57;98059.78;5053163;28;20543;-75
2022/09/12 04:24:38;;;;;;;8.83;8.00;;;10.30;99.90;;;10.35;93.80;98061.88;5072228;28;20898;-79
2022/09/12 04:27:07;;;;;;;8.10;7.40;;;10.20;99.90;;;10.41;93.09;98066.50;5065457;28;20456;-74
2022/09/12 04:29:34;;;;;;;8.50;7.70;;;10.20;99.90;;;10.44;92.93;98063.34;5077286;28;20453;-75
2022/09/12 04:32:02;;;;;;;9.17;7.20;;;10.20;99.90;;;10.41;92.82;98062.94;5071359;28;20484;-77
2022/09/12 04:34:31;;;;;;;8.60;7.70;;;10.20;99.90;;;10.30;94.26;98067.91;5069589;28;20447;-75
2022/09/12 04:36:58;;;;;;;9.20;8.40;;;10.20;99.90;;;10.02;94.52;98019.63;5080894;28;20475;-75
2022/09/12 04:39:26;;;;;;;10.47;8.37;;;10.20;99.90;;;10.63;95.41;98052.69;5072908;28;20918;-81
2022/09/12 04:41:53;;;;;;;10.23;9.13;;;10.30;99.90;;;11.55;94.74;98037.13;5286238;22;20502;-78
2022/09/12 04:44:22;;;;;;;9.60;8.60;;;11.10;99.90;;;11.12;93.01;98060.31;5039353;28;20454;-80
2022/09/12 04:46:49;;;;;;;10.17;9.23;;;10.90;99.90;;;10.42;93.08;97988.97;5047584;28;20447;-85
2022/09/12 04:49:18;;;;;;;10.40;8.40;;;10.70;99.90;;;10.76;93.08;98066.13;5029713;28;20446;-80
2022/09/12 04:51:46;;;;;;;15.13;9.00;;;10.70;99.90;;;10.61;93.38;98063.72;5038401;28;20457;-77
2022/09/12 04:54:18;;;;;;;10.03;8.80;;;10.50;99.90;;;10.71;93.80;98052.44;5038666;28;20448;-83
2022/09/12 04:56:49;;;;;;;8.90;8.00;;;10.50;99.90;;;10.69;93.84;98059.94;5038671;28;21285;-89
2022/09/12 04:59:20;;;;;;;11.10;9.33;;;10.50;99.90;;;10.55;93.89;98042.94;5014981;28;20538;-84
2022/09/12 05:01:57;;;;;;;14.27;10.43;;;10.50;99.90;;;10.62;94.64;98076.19;5015669;28;20459;-81
2022/09/12 05:04:26;;;;;;;10.63;9.53;;;10.50;99.90;;;10.68;93.97;98069.06;5008768;28;20455;-84
2022/09/12 05:06:54;;;;;;;9.27;8.30;;;10.50;99.90;;;10.33;94.13;97996.47;5025971;28;20458;-86
2022/09/12 05:09:21;;;;;;;12.30;9.60;;;10.60;99.90;;;10.81;94.46;98065.47;5014103;28;20461;-82
2022/09/12 05:11:48;;;;;;;13.27;11.00;;;10.60;99.90;;;10.47;94.08;98008.09;5012866;28;20464;-86
2022/09/12 05:14:16;;;;;;;12.87;10.83;;;10.60;99.90;;;10.89;93.34;98080.63;5008639;28;20546;-81
2022/09/12 05:16:44;;;;;;;12.63;11.10;;;10.70;99.90;;;10.85;94.16;98074.00;5000216;28;20572;-82
2022/09/12 05:19:14;;;;;;;14.53;10.77;;;10.70;99.90;;;10.66;94.22;98038.72;5018654;28;20469;-85
2022/09/12 05:21:41;;;;;;;14.60;12.00;;;10.70;99.90;;;10.95;94.54;98074.34;5010674;28;20484;-80
2022/09/12 05:24:11;;;;;;;18.77;12.40;;;10.80;99.90;;;10.87;94.66;98071.91;5010615;28;20849;-85
2022/09/12 05:26:38;;;;;;;13.00;11.50;;;10.80;99.90;;;10.92;94.86;98080.19;5014027;28;20482;-84
2022/09/12 05:29:06;;;;;;;12.57;11.13;;;10.80;99.90;;;10.99;94.63;98072.84;5007924;28;20486;-77
2022/09/12 05:31:33;;;;;;;13.10;10.70;;;10.80;99.90;;;11.10;93.85;98075.91;5013265;28;20485;-80
2022/09/12 05:34:04;;;;;;;12.40;10.50;;;10.90;99.90;;;11.10;94.20;98082.16;5001215;28;20503;-71
2022/09/12 05:36:33;;;;;;;12.47;10.13;;;11.00;99.90;;;11.07;93.65;98081.78;5015557;28;20561;-80
2022/09/12 05:39:01;;;;;;;11.23;9.60;;;10.90;99.90;;;10.97;92.91;98023.59;4998609;28;20478;-83
2022/09/12 05:41:32;;;;;;;11.43;9.90;;;11.10;99.90;;;11.20;92.41;98081.69;5005461;28;20528;-78
2022/09/12 05:44:02;;;;;;;12.90;10.90;;;11.10;99.90;;;11.31;92.90;98078.28;5001550;28;20461;-83
2022/09/12 05:46:32;;;;;;;11.77;9.50;;;11.10;99.90;;;11.42;92.46;98082.16;5009706;28;20461;-78
2022/09/12 05:49:04;;;;;;;14.10;11.37;;;11.20;99.90;;;11.48;92.16;98091.28;5018494;28;20471;-83
2022/09/12 05:51:36;;;;;;;20.57;12.97;;;11.20;99.90;;;11.46;93.09;98090.69;4993870;28;20518;-84
2022/09/12 05:54:06;;;;;;;26.00;12.60;;;11.20;99.90;;;11.45;93.83;98089.03;4990862;28;20559;-76
2022/09/12 05:56:38;;;;;;;78.83;15.30;;;11.20;99.90;;;11.41;93.33;98090.50;5000613;28;20485;-84
2022/09/12 05:59:10;;;;;;;32.97;11.80;;;11.30;99.90;;;11.70;92.61;98085.47;4997536;28;20551;-76
2022/09/12 06:01:38;;;;;;;34.33;15.67;;;11.40;99.90;;;11.73;92.91;98085.03;5010921;28;20571;-77
2022/09/12 06:04:06;;;;;;;33.33;14.73;;;11.40;99.90;;;11.65;93.20;98086.13;5008450;28;21188;-75
2022/09/12 06:06:40;;;;;;;115.90;20.37;;;11.50;99.90;;;11.62;94.79;98092.00;5003606;28;21030;-84
2022/09/12 06:09:08;;;;;;;38.30;15.67;;;11.50;99.90;;;12.19;92.75;98096.53;5008436;28;20521;-80
2022/09/12 06:11:39;;;;;;;23.37;14.83;;;11.70;99.90;;;12.33;91.21;98105.31;5000592;28;20960;-80
2022/09/12 06:14:08;;;;;;;53.83;16.60;;;11.80;99.90;;;12.00;91.38;98093.75;5000650;28;20489;-86
2022/09/12 06:16:37;;;;;;;20.40;13.03;;;11.90;99.90;;;12.27;91.49;98095.41;5020249;28;20483;-81
2022/09/12 06:19:06;;;;;;;37.07;15.43;;;11.80;99.90;;;12.25;90.41;98103.75;5002568;28;21007;-82
2022/09/12 06:21:37;;;;;;;23.73;15.47;;;11.90;99.90;;;12.24;91.21;98096.66;5019707;28;20454;-84
2022/09/12 06:24:06;;;;;;;29.40;14.93;;;12.00;99.90;;;12.41;90.30;98096.91;5000417;28;20507;-82
2022/09/12 06:26:33;;;;;;;29.70;14.10;;;12.10;99.90;;;12.48;88.72;98064.31;5018746;28;20459;-85
2022/09/12 06:29:01;;;;;;;18.17;13.70;;;12.30;99.90;;;12.31;88.18;98027.00;5005705;28;20829;-76
2022/09/12 06:31:32;;;;;;;17.97;12.63;;;12.40;99.90;;;13.15;86.73;98101.41;5003651;28;20833;-84
2022/09/12 06:34:02;;;;;;;17.00;13.30;;;12.60;99.90;;;13.34;86.02;98103.25;5017096;28;20548;-80
2022/09/12 06:36:32;;;;;;;18.17;13.30;;;12.90;99.90;;;13.00;87.91;98091.00;5005576;28;20508;-86
2022/09/12 06:39:04;;;;;;;43.03;16.13;;;12.90;99.90;;;13.02;87.15;98102.44;5017287;28;20901;-80
2022/09/12 06:41:32;;;;;;;18.30;14.30;;;12.80;99.90;;;12.90;87.78;98104.25;5001963;28;20509;-80
2022/09/12 06:44:00;;;;;;;19.73;14.90;;;12.80;99.90;;;13.31;86.74;98099.94;5008442;28;22463;-80
2022/09/12 06:46:29;;;;;;;30.83;14.20;;;13.00;99.90;;;13.09;86.76;98091.50;4998170;28;20509;-81
2022/09/12 06:48:59;;;;;;;22.03;14.37;;;13.10;99.90;;;13.25;86.90;98087.28;4995098;28;20467;-76
2022/09/12 06:51:28;;;;;;;27.80;13.13;;;13.10;99.90;;;13.04;86.43;98089.47;4999541;28;20865;-78
2022/09/12 06:53:56;;;;;;;19.10;13.53;;;13.10;99.90;;;13.01;87.54;98092.63;5000051;28;20541;-78
2022/09/12 06:56:27;;;;;;;15.00;13.30;;;13.00;99.90;;;13.32;85.86;98096.16;5003101;28;20476;-85
2022/09/12 06:58:56;;;;;;;15.43;12.27;;;13.10;99.90;;;13.68;84.03;98092.72;5001476;28;20460;-84
2022/09/12 07:01:26;;;;;;;16.50;12.87;;;13.10;99.90;;;13.48;82.73;98099.31;5021314;28;21169;-81
2022/09/12 07:03:55;;;;;;;15.93;12.50;;;13.40;96.10;;;13.76;82.73;98088.84;5002681;28;20553;-77
2022/09/12 07:06:28;;;;;;;15.90;11.90;;;13.30;97.50;;;14.58;79.79;98095.31;5003600;28;20478;-81
2022/09/12 07:08:57;;;;;;;16.37;11.90;;;13.80;95.90;;;14.57;78.50;98097.22;5006342;28;20459;-78
2022/09/12 07:11:30;;;;;;;13.27;11.87;;;14.10;93.20;;;14.78;76.76;98100.38;5004036;28;20517;-81
2022/09/12 07:13:59;;;;;;;13.43;12.03;;;14.30;92.40;;;14.23;79.30;98096.19;5004334;28;20866;-78
2022/09/12 07:16:26;;;;;;;12.97;11.77;;;14.30;92.30;;;14.06;80.96;98099.63;5009462;28;20544;-74
2022/09/12 07:18:56;;;;;;;16.83;11.50;;;14.10;93.30;;;13.90;80.99;98095.72;5007339;28;20454;-83
2022/09/12 07:21:23;;;;;;;13.60;12.20;;;14.00;93.40;;;13.69;82.83;98094.38;5001860;28;21047;-85
2022/09/12 07:23:54;;;;;;;13.63;12.23;;;13.80;94.70;;;13.77;81.90;98083.19;5007949;28;20453;-80
2022/09/12 07:26:21;;;;;;;13.93;12.43;;;13.80;94.80;;;13.67;82.43;98088.38;5004581;28;20516;-82
2022/09/12 07:28:54;;;;;;;13.73;12.20;;;13.70;95.60;;;13.67;83.70;98091.06;5003579;28;20452;-81
2022/09/12 07:31:24;;;;;;;16.80;13.47;;;13.50;97.00;;;14.08;82.09;98092.06;5001635;28;20561;-85
2022/09/12 07:33:52;;;;;;;16.37;12.80;;;13.60;97.10;;;14.39;80.70;98092.75;5001484;28;20458;-84
2022/09/12 07:36:22;;;;;;;13.57;11.47;;;13.90;96.70;;;14.48;79.49;98089.63;5019358;28;20989;-83
2022/09/12 07:38:55;;;;;;;13.57;12.20;;;14.10;94.20;;;14.37;79.99;98089.44;5000933;28;20751;-83
2022/09/12 07:41:24;;;;;;;13.57;12.27;;;14.10;94.30;;;14.13;81.17;98089.44;5017700;28;20458;-84
2022/09/12 07:43:54;;;;;;;16.17;13.87;;;14.00;94.70;;;14.22;81.05;98089.09;5014256;28;20877;-83
2022/09/12 07:46:22;;;;;;;14.20;12.80;;;14.00;95.30;;;13.82;81.49;98039.03;4997856;28;21365;-83
2022/09/12 07:48:51;;;;;;;15.10;13.50;;;14.00;95.50;;;14.01;82.39;98085.91;5002330;28;20468;-83
2022/09/12 07:51:19;;;;;;;16.83;14.73;;;13.90;96.10;;;14.00;82.26;98089.69;4995660;28;20456;-81
2022/09/12 07:53:47;;;;;;;14.77;13.30;;;13.90;96.20;;;14.52;81.28;98085.41;5019781;28;20470;-81
2022/09/12 07:56:16;;;;;;;18.37;16.57;;;14.00;96.80;;;14.88;80.45;98086.16;5006526;28;20518;-78
2022/09/12 07:58:44;;;;;;;15.40;13.90;;;14.30;96.20;;;14.59;80.42;98094.25;5001322;28;20968;-81
2022/09/12 08:01:14;;;;;;;16.93;14.00;;;14.40;94.60;;;14.65;81.15;98096.00;5017551;28;20473;-79
2022/09/12 08:03:43;;;;;;;14.70;13.30;;;14.40;95.10;;;14.74;80.87;98099.22;4995316;28;20563;-80
2022/09/12 08:06:13;;;;;;;14.80;13.40;;;14.40;95.60;;;14.32;81.88;98043.09;5014689;28;20462;-84
2022/09/12 08:08:42;;;;;;;16.00;13.97;;;14.40;96.00;;;14.97;80.76;98098.31;5001741;28;20461;-77
2022/09/12 08:11:12;;;;;;;15.67;14.07;;;14.50;96.00;;;15.36;78.56;98092.22;5001155;28;20463;-82
2022/09/12 08:13:41;;;;;;;16.20;14.60;;;14.80;94.70;;;15.69;78.03;98097.94;5001059;28;20541;-83
2022/09/12 08:16:15;;;;;;;18.30;15.40;;;15.00;94.20;;;15.77;77.75;98105.69;4995893;28;20502;-77
2022/09/12 08:18:42;;;;;;;15.80;14.20;;;15.20;93.50;;;15.67;77.46;98092.75;5002612;28;20463;-83
2022/09/12 08:21:14;;;;;;;17.90;16.10;;;15.30;93.20;;;15.47;78.38;98098.66;5001073;28;20468;-78
2022/09/12 08:23:41;;;;;;;17.67;15.87;;;15.30;92.70;;;15.83;77.64;98099.25;4997640;28;20990;-87
2022/09/12 08:26:11;;;;;;;17.50;15.80;;;15.40;93.00;;;15.73;77.81;98102.66;5000761;28;20467;-83
2022/09/12 08:28:40;;;;;;;17.23;15.53;;;15.40;93.00;;;16.14;75.82;98094.31;5014623;28;20491;-78
2022/09/12 08:31:10;;;;;;;15.70;14.10;;;15.60;92.50;;;16.47;75.44;98101.88;4997818;28;20811;-82
2022/09/12 08:33:39;;;;;;;14.90;13.40;;;15.80;92.30;;;16.56;75.36;98094.88;4997305;28;20459;-83
2022/09/12 08:36:10;;;;;;;16.17;14.57;;;16.00;92.00;;;16.57;74.48;98091.06;5010970;28;20884;-77
2022/09/12 08:38:39;;;;;;;14.87;13.57;;;16.10;91.10;;;16.47;75.42;98096.41;5001142;28;20890;-86
2022/09/12 08:41:14;;;;;;;16.23;13.47;;;16.10;91.30;;;16.74;74.78;98098.38;5015167;28;20463;-77
2022/09/12 08:44:00;;;;;;;15.10;13.60;;;16.20;91.30;;;16.97;73.77;98095.41;4998352;28;20466;-78
2022/09/12 08:46:35;;;;;;;13.43;12.13;;;16.40;91.30;;;17.16;73.24;98091.53;4997701;28;20501;-82
2022/09/12 08:49:05;;;;;;;13.90;12.60;;;16.60;90.80;;;17.19;72.97;98080.91;4999892;28;20463;-83
2022/09/12 08:51:34;;;;;;;13.97;12.57;;;16.60;90.60;;;17.28;72.36;98084.84;5003001;28;20553;-80
2022/09/12 08:54:05;;;;;;;13.63;12.40;;;16.70;90.40;;;17.40;72.14;98081.13;5013290;28;20455;-78
2022/09/12 08:56:37;;;;;;;13.67;12.37;;;16.80;90.20;;;17.68;71.16;98079.19;5017839;28;20499;-74
2022/09/12 08:59:05;;;;;;;12.97;11.77;;;17.00;89.90;;;17.39;71.78;98088.47;5012550;28;20492;-78
2022/09/12 09:01:39;;;;;;;12.80;11.60;;;17.00;89.20;;;17.74;70.01;98083.59;5012641;28;20474;-78
2022/09/12 09:04:26;;;;;;;12.80;11.60;;;17.20;89.00;;;17.72;70.45;98082.19;5013888;28;20534;-72
2022/09/12 09:07:27;;;;;;;12.53;11.43;;;17.20;88.50;;;17.44;70.56;98086.88;5023922;28;20461;-75
2022/09/12 09:10:18;;;;;;;11.90;10.07;;;17.20;87.90;;;17.47;70.51;98076.25;5025139;28;20452;-71
2022/09/12 09:12:55;;;;;;;10.43;9.40;;;17.10;87.80;;;17.91;69.18;98080.72;5041129;28;20458;-73
2022/09/12 09:15:41;;;;;;;10.67;9.73;;;17.30;87.60;;;18.20;68.14;98087.78;5030703;28;20499;-78
2022/09/12 09:18:16;;;;;;;10.80;9.80;;;17.50;87.30;;;18.39;67.43;98083.50;5022432;28;20472;-73
2022/09/12 09:20:49;;;;;;;9.70;8.80;;;17.70;87.00;;;18.53;66.22;98083.03;5039196;28;20459;-73
2022/09/12 09:23:25;;;;;;;9.07;8.30;;;17.80;85.90;;;18.46;64.65;98052.38;5018690;28;20561;-81
2022/09/12 09:25:57;;;;;;;9.17;8.43;;;18.00;84.50;;;18.82;64.44;98071.66;5021668;28;20484;-81
2022/09/12 09:28:31;;;;;;;9.30;8.50;;;18.10;84.50;;;18.49;63.46;98008.88;5016867;28;20513;-83
2022/09/12 09:30:59;;;;;;;12.90;8.50;;;18.20;83.90;;;19.00;63.06;98077.78;5017762;28;20496;-83
2022/09/12 09:33:33;;;;;;;9.53;8.63;;;18.30;83.40;;;19.08;63.44;98085.47;5025812;28;20463;-82
2022/09/12 09:36:15;;;;;;;7.00;6.40;;;18.30;83.80;;;19.10;63.21;98077.81;5031547;28;21053;-80
2022/09/12 09:38:49;;;;;;;7.90;7.23;;;18.50;83.60;;;19.07;62.78;98072.88;5019796;28;20547;-81
2022/09/12 09:41:47;;;;;;;6.83;6.23;;;18.50;82.80;;;19.20;61.07;98072.38;5022289;28;20458;-81
2022/09/12 09:44:15;;;;;;;7.33;6.63;;;18.50;81.50;;;19.21;60.01;98057.59;5032308;28;20487;-80
2022/09/12 09:46:42;;;;;;;7.67;6.97;;;18.60;80.50;;;19.37;60.58;98057.59;5011536;28;20459;-82
2022/09/12 09:49:14;;;;;;;7.47;5.70;;;18.80;81.20;;;19.56;59.33;98052.38;5024200;28;20590;-85
2022/09/12 09:51:43;;;;;;;6.60;6.00;;;18.90;80.20;;;19.66;59.40;98062.56;5008808;28;20531;-83
2022/09/12 09:54:19;;;;;;;7.87;7.17;;;19.00;80.20;;;19.79;59.03;98053.78;5009796;28;21040;-83
2022/09/12 09:56:47;;;;;;;7.70;7.10;;;19.10;79.90;;;19.87;57.92;98055.16;5009505;28;20477;-82
2022/09/12 09:59:18;;;;;;;7.60;6.90;;;19.20;79.10;;;19.86;58.18;98058.16;5012269;28;20459;-81
2022/09/12 10:01:49;;;;;;;7.57;6.83;;;19.30;79.10;;;19.89;57.72;98054.84;5004423;28;20534;-86
2022/09/12 10:04:20;;;;;;;7.33;6.73;;;19.30;78.50;;;20.15;57.37;98052.09;5003167;28;20487;-81
2022/09/12 10:06:53;;;;;;;7.43;6.80;;;19.40;78.90;;;20.03;57.42;98045.00;4998908;28;20542;-82
2022/09/12 10:09:24;;;;;;;7.37;6.77;;;19.50;78.10;;;20.26;57.65;98048.25;5009252;28;20814;-83
2022/09/12 10:11:53;;;;;;;7.50;6.90;;;19.50;78.60;;;20.01;58.01;98038.13;5000790;28;20455;-84
2022/09/12 10:14:35;;;;;;;8.63;7.93;;;19.60;78.20;;;20.06;57.73;98038.94;5005039;28;20495;-82
2022/09/12 10:17:23;;;;;;;9.50;7.37;;;19.60;77.90;;;20.47;56.21;98040.78;5005687;28;20490;-75
2022/09/12 10:19:52;;;;;;;8.20;7.50;;;19.70;77.20;;;20.60;55.41;98031.13;5000469;28;20568;-83
2022/09/12 10:22:23;;;;;;;8.70;8.00;;;20.00;76.80;;;20.62;53.93;98028.06;5021478;28;20465;-83
2022/09/12 10:24:53;;;;;;;8.83;7.93;;;20.10;75.20;;;20.95;53.75;98036.75;4999739;28;20459;-75
2022/09/12 10:27:23;;;;;;;8.27;7.40;;;20.20;75.30;;;21.02;53.54;98036.44;5004684;28;20974;-87
2022/09/12 10:29:54;;;;;;;8.20;7.40;;;20.40;75.00;;;20.78;53.64;97995.88;5015920;28;20459;-86